createdAt,value
2019-03-24T00:04:06.225Z,45.23
2019-03-24T00:06:35.685Z,44.77
2019-03-24T00:09:06.818Z,46.37
2019-03-24T00:11:36.275Z,45.97
2019-03-24T00:14:08.705Z,46.33
2019-03-24T00:16:38.177Z,47.63
2019-03-24T00:19:07.634Z,47.40
2019-03-24T00:21:37.102Z,44.00
2019-03-24T00:24:06.588Z,48.23
2019-03-24T00:26:36.141Z,43.17
2019-03-24T00:29:05.607Z,45.07
2019-03-24T00:31:35.419Z,44.00
2019-03-24T00:34:04.909Z,44.40
2019-03-24T00:36:34.366Z,41.83
2019-03-24T00:39:05.112Z,45.63
2019-03-24T00:41:34.946Z,43.90
2019-03-24T00:44:04.407Z,39.90
2019-03-24T00:46:33.874Z,45.33
2019-03-24T00:49:03.795Z,43.80
2019-03-24T00:51:33.302Z,43.33
2019-03-24T00:54:02.721Z,41.23
2019-03-24T00:56:32.174Z,43.63
2019-03-24T00:59:01.651Z,44.07
2019-03-24T01:01:31.106Z,42.60
2019-03-24T01:04:00.715Z,40.63
2019-03-24T01:06:30.198Z,41.80
2019-03-24T01:08:59.669Z,41.67
2019-03-24T01:11:29.157Z,43.57
2019-03-24T01:13:59.455Z,43.33
2019-03-24T01:16:31.478Z,42.43
2019-03-24T01:19:01.841Z,41.50
2019-03-24T01:21:31.320Z,44.23
2019-03-24T01:24:01.071Z,45.13
2019-03-24T01:26:30.886Z,43.00
2019-03-24T01:29:00.337Z,44.23
2019-03-24T01:31:29.826Z,43.13
2019-03-24T01:33:59.285Z,43.83
2019-03-24T01:36:29.008Z,44.40
2019-03-24T01:38:58.630Z,43.77
2019-03-24T01:41:28.106Z,44.30
2019-03-24T01:43:57.564Z,44.07
2019-03-24T01:46:27.193Z,44.07
2019-03-24T01:48:56.952Z,43.47
2019-03-24T01:51:26.432Z,45.50
2019-03-24T01:53:55.895Z,43.30
2019-03-24T01:56:25.350Z,44.70
2019-03-24T01:58:54.908Z,42.97
2019-03-24T02:01:24.385Z,43.63
2019-03-24T02:03:54.118Z,42.87
2019-03-24T02:06:23.795Z,43.63
2019-03-24T02:08:53.437Z,42.50
2019-03-24T02:11:23.347Z,46.27
2019-03-24T02:13:53.339Z,42.40
2019-03-24T02:16:23.257Z,43.23
2019-03-24T02:18:53.276Z,43.57
2019-03-24T02:21:23.292Z,43.27
2019-03-24T02:23:53.105Z,41.53
2019-03-24T02:26:22.738Z,40.53
2019-03-24T02:28:52.475Z,43.43
2019-03-24T02:31:22.213Z,43.27
2019-03-24T02:33:51.693Z,42.67
2019-03-24T02:36:21.561Z,43.00
2019-03-24T02:38:51.386Z,42.13
2019-03-24T02:41:21.203Z,43.13
2019-03-24T02:43:50.651Z,42.07
2019-03-24T02:46:24.556Z,42.30
2019-03-24T02:48:51.570Z,44.23
2019-03-24T02:51:21.044Z,42.17
2019-03-24T02:53:50.629Z,41.70
2019-03-24T02:56:20.100Z,42.93
2019-03-24T02:58:49.550Z,43.63
2019-03-24T03:01:19.031Z,41.83
2019-03-24T03:03:48.481Z,43.27
2019-03-24T03:06:17.941Z,45.67
2019-03-24T03:08:47.589Z,43.87
2019-03-24T03:11:18.435Z,45.07
2019-03-24T03:13:47.907Z,44.50
2019-03-24T03:16:17.370Z,43.50
2019-03-24T03:18:46.841Z,42.93
2019-03-24T03:21:16.326Z,43.83
2019-03-24T03:23:45.824Z,45.63
2019-03-24T03:26:15.278Z,44.97
2019-03-24T03:28:44.733Z,43.03
2019-03-24T03:31:14.224Z,45.73
2019-03-24T03:33:43.690Z,45.57
2019-03-24T03:36:13.497Z,46.57
2019-03-24T03:38:42.961Z,46.47
2019-03-24T03:41:12.497Z,46.67
2019-03-24T03:43:41.942Z,43.63
2019-03-24T03:46:11.406Z,46.70
2019-03-24T03:48:41.245Z,45.10
2019-03-24T03:51:10.726Z,47.03
2019-03-24T03:53:40.571Z,46.30
2019-03-24T03:56:10.319Z,45.30
2019-03-24T03:58:39.796Z,44.63
2019-03-24T04:01:09.282Z,45.17
2019-03-24T04:03:39.401Z,42.93
2019-03-24T04:06:08.859Z,42.40
2019-03-24T04:08:38.338Z,46.27
2019-03-24T04:11:07.982Z,45.70
2019-03-24T04:13:37.442Z,42.97
2019-03-24T04:16:06.941Z,46.50
2019-03-24T04:18:47.819Z,44.40
2019-03-24T04:21:39.103Z,45.77
2019-03-24T04:24:21.076Z,43.33
2019-03-24T04:27:02.886Z,43.53
2019-03-24T04:29:43.849Z,45.67
2019-03-24T04:32:26.217Z,44.53
2019-03-24T04:35:08.108Z,42.10
2019-03-24T04:38:00.906Z,44.33
2019-03-24T04:40:33.163Z,42.63
2019-03-24T04:43:02.894Z,43.60
2019-03-24T04:45:32.512Z,42.03
2019-03-24T04:48:01.979Z,38.97
2019-03-24T04:50:31.561Z,40.60
2019-03-24T04:53:01.193Z,41.43
2019-03-24T04:55:30.720Z,42.27
2019-03-24T04:58:00.564Z,43.53
2019-03-24T05:00:37.759Z,42.40
2019-03-24T05:03:07.216Z,42.20
2019-03-24T05:05:37.388Z,42.63
2019-03-24T05:08:07.511Z,44.30
2019-03-24T05:10:36.957Z,39.93
2019-03-24T05:13:06.417Z,42.53
2019-03-24T05:15:35.863Z,40.83
2019-03-24T05:18:05.325Z,41.10
2019-03-24T05:20:34.784Z,42.00
2019-03-24T05:23:04.258Z,39.03
2019-03-24T05:25:33.721Z,38.77
2019-03-24T05:28:03.546Z,39.90
2019-03-24T05:30:33.005Z,38.10
2019-03-24T05:33:02.458Z,40.87
2019-03-24T05:35:31.911Z,40.10
2019-03-24T05:38:01.418Z,38.83
2019-03-24T05:40:30.863Z,38.87
2019-03-24T05:43:00.331Z,38.33
2019-03-24T05:45:29.789Z,39.13
2019-03-24T05:47:59.596Z,37.33
2019-03-24T05:50:29.049Z,40.73
2019-03-24T05:52:58.519Z,39.37
2019-03-24T05:55:28.216Z,38.00
2019-03-24T05:57:58.030Z,40.07
2019-03-24T06:00:27.489Z,35.57
2019-03-24T06:02:57.394Z,38.30
2019-03-24T06:05:26.831Z,37.80
2019-03-24T06:07:56.299Z,36.17
2019-03-24T06:10:25.790Z,37.10
2019-03-24T06:12:55.618Z,37.73
2019-03-24T06:15:25.082Z,37.40
2019-03-24T06:17:54.620Z,39.13
2019-03-24T06:20:24.084Z,36.50
2019-03-24T06:22:53.543Z,38.10
2019-03-24T06:25:23.018Z,35.77
2019-03-24T06:27:52.481Z,35.93
2019-03-24T06:30:22.812Z,37.83
2019-03-24T06:32:52.277Z,35.20
2019-03-24T06:35:21.828Z,35.90
2019-03-24T06:37:51.277Z,35.93
2019-03-24T06:40:20.732Z,34.07
2019-03-24T06:42:50.215Z,34.50
2019-03-24T06:45:27.915Z,34.30
2019-03-24T06:47:57.955Z,33.93
2019-03-24T06:50:21.982Z,32.60
2019-03-24T06:52:51.770Z,31.10
2019-03-24T06:55:21.582Z,30.53
2019-03-24T06:57:51.060Z,31.53
2019-03-24T07:00:20.595Z,32.27
2019-03-24T07:02:50.064Z,30.17
2019-03-24T07:05:19.544Z,31.50
2019-03-24T07:07:49.015Z,26.90
2019-03-24T07:10:18.474Z,27.23
2019-03-24T07:12:48.003Z,29.20
2019-03-24T07:15:17.458Z,26.70
2019-03-24T07:17:46.927Z,27.83
2019-03-24T07:20:16.774Z,25.93
2019-03-24T07:22:46.257Z,26.90
2019-03-24T07:25:15.700Z,25.60
2019-03-24T07:27:45.207Z,25.07
2019-03-24T07:30:14.847Z,23.70
2019-03-24T07:32:44.587Z,24.50
2019-03-24T07:35:14.044Z,24.87
2019-03-24T07:37:43.507Z,24.60
2019-03-24T07:40:13.308Z,25.30
2019-03-24T07:42:43.124Z,24.93
2019-03-24T07:45:12.911Z,24.43
2019-03-24T07:47:42.381Z,23.83
2019-03-24T07:50:12.456Z,23.83
2019-03-24T07:52:41.926Z,25.37
2019-03-24T07:55:11.524Z,24.47
2019-03-24T07:57:40.988Z,23.97
2019-03-24T08:00:11.497Z,22.73
2019-03-24T08:02:50.992Z,24.53
2019-03-24T08:05:15.471Z,22.80
2019-03-24T08:07:44.944Z,22.87
2019-03-24T08:10:14.455Z,22.40
2019-03-24T08:12:43.950Z,21.97
2019-03-24T08:15:23.821Z,20.97
2019-03-24T08:18:11.460Z,20.50
2019-03-24T08:20:43.900Z,21.27
2019-03-24T08:23:13.599Z,21.50
2019-03-24T08:25:43.421Z,20.73
2019-03-24T08:28:13.246Z,20.83
2019-03-24T08:30:42.714Z,20.53
2019-03-24T08:33:12.245Z,19.47
2019-03-24T08:35:41.695Z,19.50
2019-03-24T08:38:11.194Z,20.47
2019-03-24T08:40:40.695Z,19.87
2019-03-24T08:43:10.164Z,19.33
2019-03-24T08:45:39.628Z,21.07
2019-03-24T08:48:09.103Z,19.10
2019-03-24T08:50:38.555Z,18.60
2019-03-24T08:53:08.025Z,18.30
2019-03-24T08:55:37.481Z,18.87
2019-03-24T08:58:07.226Z,17.87
2019-03-24T09:00:36.756Z,17.83
2019-03-24T09:03:06.274Z,17.10
2019-03-24T09:05:35.737Z,17.30
2019-03-24T09:08:05.197Z,17.27
2019-03-24T09:10:34.735Z,15.87
2019-03-24T09:13:04.207Z,16.60
2019-03-24T09:15:33.731Z,15.83
2019-03-24T09:18:03.190Z,16.23
2019-03-24T09:20:41.314Z,16.67
2019-03-24T09:23:03.981Z,15.30
2019-03-24T09:25:33.477Z,15.50
2019-03-24T09:28:02.992Z,14.73
2019-03-24T09:30:36.585Z,15.57
2019-03-24T09:33:06.371Z,14.93
2019-03-24T09:35:35.913Z,13.93
2019-03-24T09:38:05.460Z,14.37
2019-03-24T09:40:35.835Z,14.47
2019-03-24T09:43:05.886Z,13.57
2019-03-24T09:45:35.339Z,13.60
2019-03-24T09:48:05.267Z,12.97
2019-03-24T09:50:35.080Z,12.47
2019-03-24T09:53:06.846Z,13.20
2019-03-24T09:55:38.525Z,12.50
2019-03-24T09:58:11.684Z,12.13
2019-03-24T10:00:47.616Z,12.53
2019-03-24T10:03:15.985Z,11.73
2019-03-24T10:05:47.297Z,13.10
2019-03-24T10:08:21.913Z,12.73
2019-03-24T10:10:51.585Z,13.17
2019-03-24T10:13:21.045Z,12.63
2019-03-24T10:15:50.514Z,12.43
2019-03-24T10:18:19.981Z,11.30
2019-03-24T10:20:49.454Z,11.40
2019-03-24T10:23:18.920Z,12.47
2019-03-24T10:25:48.407Z,11.37
2019-03-24T10:28:18.232Z,11.57
2019-03-24T10:30:47.766Z,11.00
2019-03-24T10:33:17.213Z,11.03
2019-03-24T10:35:46.683Z,11.10
2019-03-24T10:38:16.143Z,11.07
2019-03-24T10:40:45.612Z,10.30
2019-03-24T10:43:15.089Z,11.20
2019-03-24T10:45:44.572Z,10.83
2019-03-24T10:48:14.384Z,9.60
2019-03-24T10:50:43.862Z,9.37
2019-03-24T10:53:13.310Z,9.30
2019-03-24T10:55:43.104Z,9.90
2019-03-24T10:58:12.631Z,9.43
2019-03-24T11:00:43.130Z,9.57
2019-03-24T11:03:12.944Z,9.87
2019-03-24T11:05:42.429Z,9.90
2019-03-24T11:08:11.894Z,10.40
2019-03-24T11:10:41.373Z,10.00
2019-03-24T11:13:10.838Z,10.47
2019-03-24T11:15:40.314Z,9.97
2019-03-24T11:18:09.790Z,9.20
2019-03-24T11:20:39.599Z,10.60
2019-03-24T11:23:09.399Z,10.43
2019-03-24T11:25:38.884Z,10.60
2019-03-24T11:28:08.337Z,10.33
2019-03-24T11:30:37.842Z,11.30
2019-03-24T11:33:07.401Z,10.17
2019-03-24T11:35:36.861Z,10.30
2019-03-24T11:38:06.325Z,10.50
2019-03-24T11:40:35.866Z,10.50
2019-03-24T11:43:05.417Z,10.23
2019-03-24T11:45:35.125Z,10.00
2019-03-24T11:48:04.606Z,11.03
2019-03-24T11:50:34.091Z,10.40
2019-03-24T11:53:03.618Z,9.50
2019-03-24T11:55:33.085Z,9.87
2019-03-24T11:58:06.135Z,9.93
2019-03-24T12:00:36.309Z,10.33
2019-03-24T12:03:05.780Z,10.20
2019-03-24T12:05:35.250Z,9.80
2019-03-24T12:08:05.153Z,10.00
2019-03-24T12:10:34.784Z,10.80
2019-03-24T12:13:04.246Z,10.40
2019-03-24T12:15:33.792Z,10.97
2019-03-24T12:18:03.561Z,10.40
2019-03-24T12:20:33.233Z,10.20
2019-03-24T12:23:02.695Z,10.33
2019-03-24T12:25:32.198Z,10.23
2019-03-24T12:28:01.660Z,10.97
2019-03-24T12:30:31.413Z,10.87
2019-03-24T12:33:00.870Z,11.10
2019-03-24T12:35:30.367Z,10.63
2019-03-24T12:37:59.834Z,10.13
2019-03-24T12:40:29.303Z,10.30
2019-03-24T12:42:58.782Z,9.93
2019-03-24T12:45:28.244Z,14.20
2019-03-24T12:47:57.893Z,10.83
2019-03-24T12:50:31.689Z,10.50
2019-03-24T12:52:58.991Z,11.80
2019-03-24T12:55:28.518Z,11.50
2019-03-24T12:57:58.057Z,11.60
2019-03-24T13:00:38.150Z,11.33
2019-03-24T13:03:07.822Z,10.17
2019-03-24T13:05:37.337Z,10.27
2019-03-24T13:08:15.207Z,12.90
2019-03-24T13:10:45.505Z,11.53
2019-03-24T13:13:14.958Z,10.27
2019-03-24T13:15:45.021Z,13.00
2019-03-24T13:18:14.498Z,12.33
2019-03-24T13:20:44.229Z,10.60
2019-03-24T13:23:13.718Z,11.80
2019-03-24T13:25:43.188Z,12.37
2019-03-24T13:28:12.754Z,13.93
2019-03-24T13:30:42.472Z,12.40
2019-03-24T13:33:11.938Z,12.40
2019-03-24T13:35:41.565Z,12.57
2019-03-24T13:38:11.060Z,12.93
2019-03-24T13:40:40.518Z,12.73
2019-03-24T13:43:10.036Z,12.57
2019-03-24T13:45:39.578Z,12.47
2019-03-24T13:48:09.047Z,11.77
2019-03-24T13:50:38.504Z,13.43
2019-03-24T13:53:08.442Z,12.37
2019-03-24T13:55:37.894Z,12.17
2019-03-24T13:58:08.241Z,13.60
2019-03-24T14:00:37.716Z,12.03
2019-03-24T14:03:07.186Z,11.83
2019-03-24T14:05:36.658Z,12.40
2019-03-24T14:08:06.131Z,11.40
2019-03-24T14:10:35.902Z,11.27
2019-03-24T14:13:05.379Z,11.40
2019-03-24T14:15:34.852Z,10.40
2019-03-24T14:18:04.631Z,10.13
2019-03-24T14:20:42.766Z,10.03
2019-03-24T14:23:05.270Z,9.27
2019-03-24T14:25:34.815Z,10.57
2019-03-24T14:28:04.297Z,10.03
2019-03-24T14:30:45.607Z,9.53
2019-03-24T14:33:15.167Z,9.63
2019-03-24T14:35:44.633Z,9.00
2019-03-24T14:38:14.119Z,10.33
2019-03-24T14:40:43.746Z,10.67
2019-03-24T14:43:13.622Z,9.70
2019-03-24T14:45:43.105Z,10.73
2019-03-24T14:48:12.600Z,9.60
2019-03-24T14:50:42.078Z,10.27
2019-03-24T14:53:11.612Z,10.17
2019-03-24T14:55:41.060Z,10.47
2019-03-24T14:58:10.527Z,10.67
2019-03-24T15:00:44.070Z,9.63
2019-03-24T15:03:13.603Z,9.20
2019-03-24T15:05:43.564Z,9.60
2019-03-24T15:08:13.116Z,9.40
2019-03-24T15:10:42.566Z,9.10
2019-03-24T15:13:13.419Z,9.00
2019-03-24T15:15:42.888Z,9.10
2019-03-24T15:18:12.392Z,10.00
2019-03-24T15:20:41.859Z,10.13
2019-03-24T15:23:11.357Z,10.63
2019-03-24T15:25:41.993Z,10.27
2019-03-24T15:28:11.550Z,9.13
2019-03-24T15:30:41.327Z,10.20
2019-03-24T15:33:10.850Z,10.53
2019-03-24T15:35:40.302Z,10.13
2019-03-24T15:38:09.862Z,10.97
2019-03-24T15:40:39.319Z,10.23
2019-03-24T15:43:08.887Z,13.13
2019-03-24T15:45:38.339Z,11.23
2019-03-24T15:48:07.815Z,10.07
2019-03-24T15:50:37.291Z,9.80
2019-03-24T15:53:06.758Z,9.70
2019-03-24T15:55:36.221Z,11.60
2019-03-24T15:58:05.956Z,10.17
2019-03-24T16:00:46.142Z,10.77
2019-03-24T16:03:15.636Z,10.20
2019-03-24T16:05:45.444Z,10.53
2019-03-24T16:08:15.234Z,10.17
2019-03-24T16:10:44.760Z,11.00
2019-03-24T16:13:14.480Z,10.30
2019-03-24T16:15:43.960Z,9.67
2019-03-24T16:18:13.401Z,10.20
2019-03-24T16:20:42.872Z,10.80
2019-03-24T16:23:12.375Z,11.50
2019-03-24T16:25:41.843Z,12.57
2019-03-24T16:28:11.337Z,10.43
2019-03-24T16:30:40.805Z,10.37
2019-03-24T16:33:16.436Z,11.17
2019-03-24T16:35:50.577Z,10.97
2019-03-24T16:38:27.424Z,11.40
2019-03-24T16:40:56.913Z,11.27
2019-03-24T16:43:26.835Z,11.93
2019-03-24T16:45:56.389Z,12.20
2019-03-24T16:48:36.195Z,13.03
2019-03-24T16:50:57.115Z,15.27
2019-03-24T16:53:26.613Z,12.40
2019-03-24T16:55:56.079Z,11.93
2019-03-24T16:58:25.744Z,14.77
2019-03-24T17:00:55.238Z,11.47
2019-03-24T17:03:24.733Z,12.87
2019-03-24T17:05:54.198Z,12.50
2019-03-24T17:08:23.677Z,12.27
2019-03-24T17:10:53.179Z,11.77
2019-03-24T17:13:22.686Z,13.03
2019-03-24T17:15:52.206Z,13.00
2019-03-24T17:18:21.694Z,13.27
2019-03-24T17:20:51.182Z,13.33
2019-03-24T17:23:20.656Z,12.90
2019-03-24T17:25:50.197Z,13.03
2019-03-24T17:28:20.036Z,12.77
2019-03-24T17:30:49.731Z,12.93
2019-03-24T17:33:19.225Z,12.80
2019-03-24T17:35:48.708Z,13.00
2019-03-24T17:38:18.184Z,12.43
2019-03-24T17:40:47.639Z,13.20
2019-03-24T17:43:17.374Z,13.83
2019-03-24T17:45:46.847Z,13.80
2019-03-24T17:48:16.369Z,15.10
2019-03-24T17:50:45.873Z,14.60
2019-03-24T17:53:15.344Z,15.80
2019-03-24T17:55:44.796Z,15.30
2019-03-24T17:58:14.269Z,14.77
2019-03-24T18:00:46.623Z,16.30
2019-03-24T18:03:16.117Z,16.87
2019-03-24T18:05:45.731Z,17.70
2019-03-24T18:08:15.224Z,19.23
2019-03-24T18:10:44.680Z,17.27
2019-03-24T18:13:14.315Z,19.83
2019-03-24T18:15:43.789Z,20.77
2019-03-24T18:18:13.274Z,21.30
2019-03-24T18:20:43.128Z,22.07
2019-03-24T18:23:13.607Z,23.60
2019-03-24T18:25:43.113Z,21.73
2019-03-24T18:28:12.994Z,21.07
2019-03-24T18:30:42.542Z,21.83
2019-03-24T18:33:12.032Z,21.13
2019-03-24T18:35:41.499Z,20.13
2019-03-24T18:38:11.037Z,20.30
2019-03-24T18:40:40.774Z,21.50
2019-03-24T18:43:10.227Z,21.93
2019-03-24T18:45:39.692Z,22.63
2019-03-24T18:48:09.650Z,23.60
2019-03-24T18:50:39.129Z,23.77
2019-03-24T18:53:12.726Z,25.50
2019-03-24T18:55:42.191Z,25.27
2019-03-24T18:58:11.671Z,25.13
2019-03-24T19:00:41.210Z,23.60
2019-03-24T19:03:10.666Z,23.50
2019-03-24T19:05:40.247Z,23.77
2019-03-24T19:08:09.709Z,22.73
2019-03-24T19:10:39.214Z,24.70
2019-03-24T19:13:08.674Z,23.40
2019-03-24T19:15:38.139Z,23.83
2019-03-24T19:18:07.590Z,23.87
2019-03-24T19:20:37.431Z,24.63
2019-03-24T19:23:06.940Z,26.03
2019-03-24T19:25:36.501Z,24.23
2019-03-24T19:28:06.263Z,24.83
2019-03-24T19:30:37.641Z,25.50
2019-03-24T19:33:07.149Z,27.40
2019-03-24T19:35:36.778Z,27.27
2019-03-24T19:38:06.281Z,25.93
2019-03-24T19:40:35.995Z,24.50
2019-03-24T19:43:05.688Z,23.03
2019-03-24T19:45:36.901Z,22.67
2019-03-24T19:48:06.484Z,21.80
2019-03-24T19:50:36.028Z,21.80
2019-03-24T19:53:05.741Z,20.47
2019-03-24T19:55:35.248Z,21.67
2019-03-24T19:58:05.090Z,20.77
2019-03-24T20:00:34.554Z,21.93
2019-03-24T20:03:04.399Z,20.70
2019-03-24T20:05:33.921Z,20.80
2019-03-24T20:08:03.366Z,19.43
2019-03-24T20:10:32.843Z,20.53
2019-03-24T20:13:02.294Z,19.87
2019-03-24T20:15:31.850Z,20.60
2019-03-24T20:18:01.649Z,20.43
2019-03-24T20:20:31.137Z,19.97
2019-03-24T20:23:00.622Z,19.90
2019-03-24T20:25:30.091Z,20.87
2019-03-24T20:27:59.802Z,20.67
2019-03-24T20:30:29.272Z,22.13
2019-03-24T20:33:02.174Z,22.00
2019-03-24T20:35:34.670Z,21.60
2019-03-24T20:38:12.581Z,21.03
2019-03-24T20:40:52.670Z,21.53
2019-03-24T20:43:30.377Z,21.87
2019-03-24T20:46:20.186Z,19.50
2019-03-24T20:48:43.623Z,19.97
2019-03-24T20:51:18.378Z,20.37
2019-03-24T20:53:53.888Z,19.90
2019-03-24T20:56:30.293Z,21.97
2019-03-24T20:59:09.169Z,21.20
2019-03-24T21:01:40.460Z,20.73
2019-03-24T21:04:09.936Z,21.67
2019-03-24T21:06:39.392Z,23.23
2019-03-24T21:09:09.546Z,21.87
2019-03-24T21:11:39.027Z,23.53
2019-03-24T21:14:08.770Z,22.77
2019-03-24T21:16:38.507Z,23.77
2019-03-24T21:19:08.396Z,23.90
2019-03-24T21:21:37.868Z,22.33
2019-03-24T21:24:07.329Z,23.77
2019-03-24T21:26:36.826Z,23.80
2019-03-24T21:29:06.313Z,22.93
2019-03-24T21:31:35.754Z,22.63
2019-03-24T21:34:05.225Z,24.33
2019-03-24T21:36:35.258Z,25.40
2019-03-24T21:39:07.044Z,25.20
2019-03-24T21:41:36.686Z,24.40
2019-03-24T21:44:06.145Z,25.03
2019-03-24T21:46:35.618Z,25.33
2019-03-24T21:49:05.101Z,26.00
2019-03-24T21:51:34.599Z,24.67
2019-03-24T21:54:04.045Z,25.60
2019-03-24T21:56:33.591Z,25.00
2019-03-24T21:59:03.361Z,24.30
2019-03-24T22:01:33.005Z,24.10
2019-03-24T22:04:02.465Z,23.57
2019-03-24T22:06:31.965Z,24.00
2019-03-24T22:09:01.420Z,23.67
2019-03-24T22:11:31.182Z,24.47
2019-03-24T22:14:00.631Z,25.13
2019-03-24T22:16:30.432Z,24.20
2019-03-24T22:18:59.905Z,26.80
2019-03-24T22:21:29.370Z,27.53
2019-03-24T22:23:58.986Z,27.30
2019-03-24T22:26:28.450Z,26.63
2019-03-24T22:28:57.923Z,27.90
2019-03-24T22:31:27.404Z,28.13
2019-03-24T22:33:56.866Z,28.47
2019-03-24T22:36:26.333Z,29.50
2019-03-24T22:38:55.793Z,30.57
2019-03-24T22:41:25.340Z,30.57
2019-03-24T22:43:54.796Z,31.10
2019-03-24T22:46:24.269Z,33.30
2019-03-24T22:48:53.904Z,30.97
2019-03-24T22:51:23.384Z,30.97
2019-03-24T22:54:03.016Z,32.23
2019-03-24T22:56:24.042Z,32.77
2019-03-24T22:58:53.523Z,34.63
2019-03-24T23:01:23.277Z,32.57
2019-03-24T23:03:52.738Z,32.10
2019-03-24T23:06:22.202Z,31.50
2019-03-24T23:08:51.726Z,31.17
2019-03-24T23:11:21.220Z,32.57
2019-03-24T23:13:50.689Z,32.63
2019-03-24T23:16:20.208Z,33.80
2019-03-24T23:18:49.666Z,32.47
2019-03-24T23:21:19.136Z,32.13
2019-03-24T23:23:48.619Z,33.50
2019-03-24T23:26:18.105Z,34.13
2019-03-24T23:28:47.727Z,33.80
2019-03-24T23:31:17.459Z,33.97
2019-03-24T23:33:46.916Z,32.57
2019-03-24T23:36:16.387Z,31.67
2019-03-24T23:38:45.842Z,32.90
2019-03-24T23:41:15.316Z,31.63
2019-03-24T23:43:44.817Z,34.07
2019-03-24T23:46:14.277Z,32.20
2019-03-24T23:48:44.073Z,32.00
2019-03-24T23:51:13.558Z,32.63
2019-03-24T23:53:43.024Z,31.10
2019-03-24T23:56:12.521Z,32.43
2019-03-24T23:58:41.988Z,31.50
